Time;durP1;ratioP1;P1;durP2;ratioP2;P2;SDS_P1;SDS_P2;PMS_P1;PMS_P2;Temp;Humidity;BMP_temperature;BMP_pressure;BME280_temperature;BME280_humidity;BME280_pressure;Samples;Min_cycle;Max_cycle;Signal;HPM_P1;HPM_P2
2022/10/11 00:00:38;;;;;;;10.20;6.80;;;;;;;;;;5111393;28;20195;-71
2022/10/11 00:03:04;;;;;;;8.53;6.43;;;;;;;;;;5109571;28;20525;-71
2022/10/11 00:05:49;;;;;;;13.33;6.60;;;;;;;;;;5091132;28;20186;-71
2022/10/11 00:08:15;;;;;;;9.23;6.60;;;;;;;;;;5107808;28;20200;-71
2022/10/11 00:10:42;;;;;;;9.63;6.70;;;;;;;;;;5110421;28;20192;-71
2022/10/11 00:13:09;;;;;;;9.83;6.63;;;;;;;;;;5107849;28;20665;-71
2022/10/11 00:15:37;;;;;;;9.60;6.70;;;;;;;;;;5111149;28;20251;-71
2022/10/11 00:18:04;;;;;;;12.30;7.70;;;;;;;;;;5075287;28;20551;-71
2022/10/11 00:20:31;;;;;;;11.83;7.40;;;;;;;;;;5090937;28;20242;-73
2022/10/11 00:22:57;;;;;;;13.33;7.23;;;;;;;;;;5076072;28;20244;-71
2022/10/11 00:25:24;;;;;;;15.00;6.93;;;;;;;;;;5093184;28;20225;-71
2022/10/11 00:27:51;;;;;;;10.20;6.50;;;;;;;;;;5093275;28;20246;-71
2022/10/11 00:30:17;;;;;;;12.87;7.30;;;;;;;;;;5109030;28;20219;-71
2022/10/11 00:33:02;;;;;;;11.87;7.03;;;;;;;;;;5109764;28;20247;-71
2022/10/11 00:35:28;;;;;;;11.43;7.70;;;;;;;;;;5108484;28;20227;-71
2022/10/11 00:38:13;;;;;;;10.47;7.40;;;;;;;;;;5108138;28;20224;-71
2022/10/11 00:40:40;;;;;;;12.33;7.90;;;;;;;;;;5091150;28;20744;-71
2022/10/11 00:43:16;;;;;;;12.00;7.33;;;;;;;;;;5109631;28;20224;-71
2022/10/11 00:45:46;;;;;;;10.27;7.43;;;;;;;;;;5108221;28;20189;-71
2022/10/11 00:48:40;;;;;;;8.80;6.87;;;;;;;;;;5093937;28;20184;-71
2022/10/11 00:51:27;;;;;;;12.87;7.47;;;;;;;;;;5091613;28;20193;-71
2022/10/11 00:53:54;;;;;;;11.03;6.67;;;;;;;;;;5109486;28;20725;-71
2022/10/11 00:56:25;;;;;;;10.80;6.60;;;;;;;;;;5091266;28;20197;-71
2022/10/11 00:58:52;;;;;;;11.90;6.70;;;;;;;;;;5085346;28;20250;-71
2022/10/11 01:01:18;;;;;;;12.53;7.50;;;;;;;;;;5079593;28;20536;-70
2022/10/11 01:03:45;;;;;;;16.27;8.13;;;;;;;;;;5091220;28;20213;-71
2022/10/11 01:06:12;;;;;;;11.67;7.73;;;;;;;;;;5091111;28;20246;-71
2022/10/11 01:08:39;;;;;;;12.37;7.70;;;;;;;;;;5107264;28;20196;-71
2022/10/11 01:11:05;;;;;;;12.20;8.13;;;;;;;;;;5106983;28;20206;-71
2022/10/11 01:13:35;;;;;;;14.83;8.40;;;;;;;;;;5091004;28;20192;-71
2022/10/11 01:16:09;;;;;;;12.17;8.57;;;;;;;;;;5107803;28;20186;-71
2022/10/11 01:19:08;;;;;;;12.50;8.23;;;;;;;;;;5108295;28;20279;-71
2022/10/11 01:21:35;;;;;;;14.20;8.63;;;;;;;;;;5047839;28;20200;-71
2022/10/11 01:24:21;;;;;;;14.37;8.70;;;;;;;;;;5109261;28;20195;-71
2022/10/11 01:27:05;;;;;;;18.13;9.53;;;;;;;;;;5109307;28;20184;-71
2022/10/11 01:29:48;;;;;;;12.33;8.97;;;;;;;;;;5108885;28;20184;-71
2022/10/11 01:32:18;;;;;;;14.07;9.47;;;;;;;;;;5108130;28;20220;-71
2022/10/11 01:34:45;;;;;;;13.77;9.57;;;;;;;;;;5089389;28;20243;-71
2022/10/11 01:37:13;;;;;;;14.37;9.90;;;;;;;;;;5108647;28;20618;-71
2022/10/11 01:40:16;;;;;;;14.50;10.27;;;;;;;;;;5091793;28;20179;-72
2022/10/11 01:42:43;;;;;;;14.97;10.03;;;;;;;;;;5096841;28;20187;-70
2022/10/11 01:45:12;;;;;;;14.77;9.67;;;;;;;;;;5089662;28;20235;-70
2022/10/11 01:47:41;;;;;;;15.73;10.43;;;;;;;;;;5090609;28;20277;-71
2022/10/11 01:50:28;;;;;;;14.57;9.97;;;;;;;;;;5107419;28;20189;-71
2022/10/11 01:52:54;;;;;;;17.60;10.83;;;;;;;;;;5108517;28;20702;-71
2022/10/11 01:55:27;;;;;;;14.50;9.93;;;;;;;;;;5090185;28;20224;-71
2022/10/11 01:57:57;;;;;;;15.43;10.57;;;;;;;;;;5089773;28;20198;-70
2022/10/11 02:00:50;;;;;;;14.73;9.90;;;;;;;;;;5108533;28;20206;-71
2022/10/11 02:03:17;;;;;;;17.50;9.90;;;;;;;;;;5089341;28;20837;-71
2022/10/11 02:05:56;;;;;;;13.47;10.27;;;;;;;;;;5089305;28;20186;-71
2022/10/11 02:08:38;;;;;;;16.77;10.00;;;;;;;;;;5104363;28;20220;-72
2022/10/11 02:11:15;;;;;;;15.13;9.47;;;;;;;;;;5109472;28;20230;-70
2022/10/11 02:13:46;;;;;;;15.13;9.00;;;;;;;;;;5091023;28;20191;-71
2022/10/11 02:16:14;;;;;;;14.53;9.63;;;;;;;;;;5109423;28;20554;-71
2022/10/11 02:18:41;;;;;;;16.27;9.77;;;;;;;;;;5088953;28;20194;-71
2022/10/11 02:21:09;;;;;;;15.10;9.73;;;;;;;;;;5087545;28;20241;-71
2022/10/11 02:23:58;;;;;;;16.43;9.50;;;;;;;;;;5101768;28;20233;-71
2022/10/11 02:26:27;;;;;;;17.13;9.50;;;;;;;;;;5105677;28;20192;-70
2022/10/11 02:28:54;;;;;;;13.20;9.33;;;;;;;;;;5087944;28;20193;-70
2022/10/11 02:31:21;;;;;;;18.13;10.10;;;;;;;;;;5109689;28;20254;-70
2022/10/11 02:33:50;;;;;;;16.07;9.30;;;;;;;;;;5093077;28;20188;-70
2022/10/11 02:36:24;;;;;;;14.47;9.23;;;;;;;;;;5093394;28;20740;-70
2022/10/11 02:38:55;;;;;;;17.00;9.70;;;;;;;;;;5091276;28;20185;-70
2022/10/11 02:41:24;;;;;;;17.57;9.87;;;;;;;;;;5111221;28;20199;-70
2022/10/11 02:43:52;;;;;;;16.17;9.80;;;;;;;;;;5072409;28;20639;-70
2022/10/11 02:46:18;;;;;;;15.97;9.60;;;;;;;;;;5074797;28;20258;-70
2022/10/11 02:48:45;;;;;;;13.77;9.70;;;;;;;;;;5103190;28;21042;-70
2022/10/11 02:51:12;;;;;;;17.87;10.10;;;;;;;;;;5093233;28;20261;-70
2022/10/11 02:53:39;;;;;;;17.17;9.93;;;;;;;;;;5112078;28;20192;-69
2022/10/11 02:56:06;;;;;;;16.43;10.13;;;;;;;;;;5083233;28;20220;-70
2022/10/11 02:58:33;;;;;;;14.07;9.97;;;;;;;;;;5092661;28;20189;-70
2022/10/11 03:00:59;;;;;;;15.43;10.20;;;;;;;;;;5110337;28;20196;-70
2022/10/11 03:03:26;;;;;;;15.10;11.23;;;;;;;;;;5092175;28;20189;-71
2022/10/11 03:05:57;;;;;;;18.10;10.20;;;;;;;;;;5094040;28;20283;-70
2022/10/11 03:08:23;;;;;;;16.73;9.77;;;;;;;;;;5103528;28;20220;-75
2022/10/11 03:10:50;;;;;;;15.07;11.17;;;;;;;;;;5081538;28;20197;-73
2022/10/11 03:13:17;;;;;;;17.23;10.07;;;;;;;;;;5077946;28;20635;-72
2022/10/11 03:15:50;;;;;;;15.90;10.17;;;;;;;;;;5086047;28;20217;-73
2022/10/11 03:18:29;;;;;;;13.93;9.47;;;;;;;;;;5081258;28;20203;-75
2022/10/11 03:20:56;;;;;;;17.03;9.40;;;;;;;;;;5082641;28;20971;-76
2022/10/11 03:23:22;;;;;;;16.73;9.43;;;;;;;;;;5067248;28;20181;-75
2022/10/11 03:25:50;;;;;;;12.47;7.83;;;;;;;;;;5088778;28;20200;-73
2022/10/11 03:28:18;;;;;;;10.67;7.23;;;;;;;;;;5092304;28;20251;-79
2022/10/11 03:31:02;;;;;;;10.27;7.17;;;;;;;;;;5070668;28;20229;-72
2022/10/11 03:33:29;;;;;;;12.20;7.50;;;;;;;;;;5080508;28;20949;-75
2022/10/11 03:35:56;;;;;;;14.70;7.13;;;;;;;;;;5086485;28;20296;-73
2022/10/11 03:38:23;;;;;;;10.83;6.20;;;;;;;;;;5086863;28;20219;-77
2022/10/11 03:40:50;;;;;;;12.00;6.40;;;;;;;;;;5076059;28;20906;-72
2022/10/11 03:43:17;;;;;;;8.80;5.13;;;;;;;;;;5080788;28;20204;-72
2022/10/11 03:45:44;;;;;;;13.97;5.37;;;;;;;;;;5084158;27;20275;-76
2022/10/11 03:48:12;;;;;;;10.40;5.63;;;;;;;;;;5081461;28;20261;-73
2022/10/11 03:50:39;;;;;;;9.40;5.50;;;;;;;;;;5065161;28;20237;-74
2022/10/11 03:53:06;;;;;;;7.70;4.70;;;;;;;;;;5078612;28;20208;-73
2022/10/11 03:55:33;;;;;;;9.23;4.67;;;;;;;;;;5060301;28;20243;-70
2022/10/11 03:57:59;;;;;;;7.60;4.57;;;;;;;;;;5093293;28;20196;-72
2022/10/11 04:00:26;;;;;;;6.50;3.83;;;;;;;;;;5072712;28;20209;-73
2022/10/11 04:02:53;;;;;;;7.07;3.70;;;;;;;;;;5078302;28;21269;-73
2022/10/11 04:05:20;;;;;;;6.77;3.80;;;;;;;;;;5061167;28;20205;-72
2022/10/11 04:07:47;;;;;;;6.87;3.50;;;;;;;;;;5080507;28;20529;-70
2022/10/11 04:10:13;;;;;;;7.37;3.67;;;;;;;;;;5087568;28;20262;-74
2022/10/11 04:12:41;;;;;;;7.23;3.63;;;;;;;;;;5071836;28;20312;-79
2022/10/11 04:15:11;;;;;;;4.67;3.17;;;;;;;;;;5060871;28;20913;-73
2022/10/11 04:17:38;;;;;;;6.97;2.63;;;;;;;;;;5077306;28;20193;-75
2022/10/11 04:20:05;;;;;;;8.23;3.57;;;;;;;;;;5075918;28;20808;-73
2022/10/11 04:22:32;;;;;;;4.97;2.40;;;;;;;;;;5090804;28;20889;-72
2022/10/11 04:24:59;;;;;;;5.33;2.43;;;;;;;;;;5093561;28;20256;-71
2022/10/11 04:27:26;;;;;;;4.57;2.40;;;;;;;;;;5091704;28;20739;-72
2022/10/11 04:29:53;;;;;;;5.47;2.50;;;;;;;;;;5093261;28;20201;-73
2022/10/11 04:32:20;;;;;;;3.60;2.00;;;;;;;;;;5057018;28;20212;-72
2022/10/11 04:34:47;;;;;;;4.77;1.93;;;;;;;;;;5080540;28;20329;-75
2022/10/11 04:37:14;;;;;;;4.47;1.60;;;;;;;;;;5084585;28;20577;-73
2022/10/11 04:39:41;;;;;;;4.47;1.67;;;;;;;;;;5073742;28;20201;-73
2022/10/11 04:42:07;;;;;;;5.53;1.60;;;;;;;;;;5090824;28;20182;-73
2022/10/11 04:44:34;;;;;;;3.27;1.40;;;;;;;;;;5080449;28;20284;-74
2022/10/11 04:47:01;;;;;;;5.07;1.80;;;;;;;;;;5078060;28;20188;-75
2022/10/11 04:49:28;;;;;;;4.80;1.60;;;;;;;;;;5082358;28;20256;-73
2022/10/11 04:51:55;;;;;;;5.23;1.37;;;;;;;;;;5076833;28;20227;-74
2022/10/11 04:54:22;;;;;;;8.07;1.40;;;;;;;;;;5079511;28;20217;-72
2022/10/11 04:56:50;;;;;;;3.83;1.13;;;;;;;;;;5085093;28;20587;-73
2022/10/11 04:59:17;;;;;;;4.27;1.13;;;;;;;;;;5087122;28;20198;-72
2022/10/11 05:01:43;;;;;;;4.73;1.37;;;;;;;;;;5091655;28;20253;-72
2022/10/11 05:04:10;;;;;;;5.33;1.30;;;;;;;;;;5078610;28;20761;-74
2022/10/11 05:06:37;;;;;;;7.17;1.80;;;;;;;;;;5095375;28;20196;-74
2022/10/11 05:09:04;;;;;;;3.07;1.10;;;;;;;;;;5094525;28;20216;-71
2022/10/11 05:11:31;;;;;;;4.17;1.30;;;;;;;;;;5086171;28;20214;-71
2022/10/11 05:13:58;;;;;;;3.67;1.50;;;;;;;;;;5092165;28;20201;-73
2022/10/11 05:16:24;;;;;;;6.23;1.30;;;;;;;;;;5044301;28;20243;-74
2022/10/11 05:19:09;;;;;;;7.30;1.47;;;;;;;;;;5085773;28;20188;-72
2022/10/11 05:21:36;;;;;;;6.40;1.27;;;;;;;;;;5094280;28;20183;-72
2022/10/11 05:24:02;;;;;;;6.37;1.20;;;;;;;;;;5104600;28;20250;-72
2022/10/11 05:26:29;;;;;;;8.17;1.60;;;;;;;;;;5108889;28;20200;-72
2022/10/11 05:28:57;;;;;;;3.10;1.10;;;;;;;;;;5109433;28;20243;-75
2022/10/11 05:31:24;;;;;;;6.50;1.27;;;;;;;;;;5053677;28;20179;-75
2022/10/11 05:33:50;;;;;;;6.27;1.53;;;;;;;;;;5083999;28;20188;-68
2022/10/11 05:36:17;;;;;;;2.77;1.77;;;;;;;;;;5107666;28;20227;-72
2022/10/11 05:38:44;;;;;;;4.23;1.20;;;;;;;;;;5110008;28;20191;-71
2022/10/11 05:41:14;;;;;;;6.87;2.23;;;;;;;;;;5109984;28;20644;-70
2022/10/11 05:43:41;;;;;;;7.87;1.80;;;;;;;;;;5110008;28;20614;-71
2022/10/11 05:46:07;;;;;;;4.37;1.37;;;;;;;;;;5109678;28;20181;-71
2022/10/11 05:48:34;;;;;;;8.93;1.50;;;;;;;;;;5110390;28;20242;-71
2022/10/11 05:51:02;;;;;;;6.50;1.80;;;;;;;;;;5110325;28;20191;-71
2022/10/11 05:53:46;;;;;;;9.97;2.53;;;;;;;;;;5094867;28;20259;-70
2022/10/11 05:56:20;;;;;;;14.07;2.87;;;;;;;;;;5080549;28;20228;-70
2022/10/11 05:58:47;;;;;;;9.07;2.43;;;;;;;;;;5063540;28;20196;-71
2022/10/11 06:01:23;;;;;;;8.60;2.40;;;;;;;;;;5088618;28;20188;-69
2022/10/11 06:03:50;;;;;;;9.57;1.70;;;;;;;;;;5085990;28;20207;-70
2022/10/11 06:06:17;;;;;;;7.03;2.10;;;;;;;;;;5083316;28;20185;-69
2022/10/11 06:08:44;;;;;;;8.47;1.70;;;;;;;;;;5094432;28;20245;-69
2022/10/11 06:11:30;;;;;;;11.83;2.40;;;;;;;;;;5082401;28;20279;-69
2022/10/11 06:13:58;;;;;;;10.27;1.73;;;;;;;;;;5086924;28;21802;-69
2022/10/11 06:16:25;;;;;;;8.00;1.90;;;;;;;;;;5082983;28;20252;-73
2022/10/11 06:18:55;;;;;;;9.67;2.03;;;;;;;;;;5090356;28;20552;-69
2022/10/11 06:21:22;;;;;;;7.20;1.87;;;;;;;;;;5092824;28;20698;-69
2022/10/11 06:23:49;;;;;;;9.00;2.03;;;;;;;;;;5091950;28;20200;-74
2022/10/11 06:26:16;;;;;;;7.90;1.63;;;;;;;;;;5093124;28;20549;-75
2022/10/11 06:28:43;;;;;;;7.93;1.77;;;;;;;;;;5092319;28;20715;-75
2022/10/11 06:31:10;;;;;;;12.13;3.10;;;;;;;;;;5091912;28;20185;-74
2022/10/11 06:33:37;;;;;;;11.27;2.30;;;;;;;;;;5092231;28;20189;-75
2022/10/11 06:36:05;;;;;;;7.47;1.77;;;;;;;;;;5075071;28;20209;-74
2022/10/11 06:38:32;;;;;;;8.43;2.40;;;;;;;;;;5112872;28;20229;-74
2022/10/11 06:41:09;;;;;;;9.03;1.73;;;;;;;;;;5113404;28;20193;-74
2022/10/11 06:43:36;;;;;;;10.57;2.00;;;;;;;;;;5095450;28;20699;-74
2022/10/11 06:46:03;;;;;;;14.90;2.60;;;;;;;;;;5111766;28;20192;-74
2022/10/11 06:48:30;;;;;;;10.33;2.47;;;;;;;;;;5113218;28;20188;-74
2022/10/11 06:50:57;;;;;;;10.73;2.20;;;;;;;;;;5111895;28;20184;-75
2022/10/11 06:53:26;;;;;;;7.53;2.13;;;;;;;;;;5113206;28;20223;-75
2022/10/11 06:55:53;;;;;;;10.70;2.13;;;;;;;;;;5112932;28;20208;-75
2022/10/11 06:58:38;;;;;;;8.73;1.93;;;;;;;;;;5080735;28;20165;-74
2022/10/11 07:01:05;;;;;;;7.70;2.00;;;;;;;;;;5094965;28;20192;-74
2022/10/11 07:03:32;;;;;;;10.20;2.00;;;;;;;;;;5113044;28;20209;-74
2022/10/11 07:06:00;;;;;;;12.03;2.37;;;;;;;;;;5094914;28;20201;-73
2022/10/11 07:08:28;;;;;;;7.33;2.10;;;;;;;;;;5112695;28;20249;-75
2022/10/11 07:11:13;;;;;;;10.40;1.90;;;;;;;;;;5112661;28;20282;-74
2022/10/11 07:13:40;;;;;;;9.63;2.30;;;;;;;;;;5112823;28;20656;-74
2022/10/11 07:16:24;;;;;;;9.37;2.53;;;;;;;;;;5096656;28;20197;-75
2022/10/11 07:18:52;;;;;;;10.20;2.40;;;;;;;;;;5094930;28;20181;-74
2022/10/11 07:21:36;;;;;;;10.17;2.30;;;;;;;;;;5112593;28;20242;-74
2022/10/11 07:24:02;;;;;;;8.37;2.30;;;;;;;;;;5112813;28;20195;-74
2022/10/11 07:26:47;;;;;;;8.47;1.80;;;;;;;;;;5112828;28;20176;-76
2022/10/11 07:29:16;;;;;;;10.67;1.87;;;;;;;;;;5092136;28;20207;-75
2022/10/11 07:31:43;;;;;;;11.37;1.83;;;;;;;;;;5111810;28;20564;-75
2022/10/11 07:34:09;;;;;;;8.03;1.60;;;;;;;;;;5112075;28;20276;-75
2022/10/11 07:36:36;;;;;;;8.47;1.70;;;;;;;;;;5111789;28;20244;-76
2022/10/11 07:39:04;;;;;;;9.97;2.17;;;;;;;;;;5112669;28;20272;-74
2022/10/11 07:41:30;;;;;;;8.80;2.10;;;;;;;;;;5076969;28;20193;-75
2022/10/11 07:43:57;;;;;;;9.23;1.80;;;;;;;;;;5112320;28;20189;-74
2022/10/11 07:46:24;;;;;;;9.07;2.00;;;;;;;;;;5112240;28;20184;-74
2022/10/11 07:48:51;;;;;;;8.23;1.83;;;;;;;;;;5112143;28;20204;-75
2022/10/11 07:51:18;;;;;;;10.07;2.17;;;;;;;;;;5111849;28;20378;-74
2022/10/11 07:53:46;;;;;;;9.67;2.03;;;;;;;;;;5077167;28;20565;-74
2022/10/11 07:56:13;;;;;;;7.83;2.27;;;;;;;;;;5077115;28;20240;-74
2022/10/11 07:58:40;;;;;;;10.73;2.00;;;;;;;;;;5077182;28;20185;-73
2022/10/11 08:01:25;;;;;;;8.30;1.73;;;;;;;;;;5111663;28;20243;-74
2022/10/11 08:03:52;;;;;;;7.03;1.90;;;;;;;;;;5093782;28;20567;-74
2022/10/11 08:06:19;;;;;;;7.13;1.80;;;;;;;;;;5111709;28;20543;-74
2022/10/11 08:08:46;;;;;;;10.93;2.10;;;;;;;;;;5076976;28;20189;-75
2022/10/11 08:11:26;;;;;;;6.30;2.10;;;;;;;;;;5093784;28;20716;-74
2022/10/11 08:13:53;;;;;;;6.73;1.90;;;;;;;;;;5111666;28;20671;-74
2022/10/11 08:16:20;;;;;;;8.50;1.90;;;;;;;;;;5111461;28;20574;-74
2022/10/11 08:18:46;;;;;;;7.87;1.87;;;;;;;;;;5092951;28;20289;-74
2022/10/11 08:21:14;;;;;;;9.60;2.17;;;;;;;;;;5093295;28;20195;-74
2022/10/11 08:23:40;;;;;;;8.73;1.80;;;;;;;;;;5093241;28;20215;-75
2022/10/11 08:26:08;;;;;;;6.90;1.50;;;;;;;;;;5093332;28;20188;-73
2022/10/11 08:28:52;;;;;;;12.20;2.10;;;;;;;;;;5109769;28;20169;-74
2022/10/11 08:31:19;;;;;;;5.93;1.60;;;;;;;;;;5111371;28;20256;-74
2022/10/11 08:34:04;;;;;;;7.60;2.10;;;;;;;;;;5111137;28;20681;-74
2022/10/11 08:36:30;;;;;;;6.80;1.70;;;;;;;;;;5110726;28;22252;-74
2022/10/11 08:38:57;;;;;;;9.20;1.80;;;;;;;;;;5111029;28;20258;-73
2022/10/11 08:41:24;;;;;;;8.30;1.87;;;;;;;;;;5092800;28;20185;-74
2022/10/11 08:43:54;;;;;;;5.37;1.30;;;;;;;;;;5092775;28;20683;-74
2022/10/11 08:46:22;;;;;;;10.27;1.97;;;;;;;;;;5111017;28;20184;-73
2022/10/11 08:48:49;;;;;;;5.90;1.60;;;;;;;;;;5092814;28;20173;-74
2022/10/11 08:51:29;;;;;;;8.10;1.80;;;;;;;;;;5092749;28;20196;-73
2022/10/11 08:53:56;;;;;;;8.63;2.10;;;;;;;;;;5093069;28;20189;-73
2022/10/11 08:56:23;;;;;;;10.10;2.00;;;;;;;;;;5110733;28;20216;-74
2022/10/11 08:59:08;;;;;;;13.23;2.80;;;;;;;;;;5092564;28;20180;-73
2022/10/11 09:01:35;;;;;;;9.53;1.97;;;;;;;;;;5110336;28;20241;-74
2022/10/11 09:04:02;;;;;;;8.80;1.60;;;;;;;;;;5092643;28;20257;-73
2022/10/11 09:06:32;;;;;;;7.63;1.80;;;;;;;;;;5092467;28;20604;-73
2022/10/11 09:09:14;;;;;;;9.40;1.90;;;;;;;;;;5110908;28;20193;-73
2022/10/11 09:11:51;;;;;;;7.80;1.93;;;;;;;;;;5110884;28;20192;-73
2022/10/11 09:14:55;;;;;;;6.77;1.70;;;;;;;;;;5110694;28;20532;-74
2022/10/11 09:17:35;;;;;;;8.17;1.80;;;;;;;;;;5079172;28;20232;-74
2022/10/11 09:20:02;;;;;;;8.27;1.80;;;;;;;;;;5091644;28;20256;-73
2022/10/11 09:22:28;;;;;;;8.13;1.63;;;;;;;;;;5110257;28;20188;-74
2022/10/11 09:25:15;;;;;;;6.87;1.37;;;;;;;;;;5110419;28;20189;-74
2022/10/11 09:28:14;;;;;;;6.53;1.73;;;;;;;;;;5110142;28;20524;-74
2022/10/11 09:30:51;;;;;;;11.60;1.40;;;;;;;;;;5110333;28;20230;-74
2022/10/11 09:33:37;;;;;;;6.47;1.50;;;;;;;;;;5094611;28;20173;-74
2022/10/11 09:36:16;;;;;;;6.90;1.90;;;;;;;;;;5092396;28;20192;-74
2022/10/11 09:38:54;;;;;;;6.47;1.60;;;;;;;;;;5055214;28;20537;-73
2022/10/11 09:41:23;;;;;;;11.00;1.93;;;;;;;;;;5054720;28;20226;-73
2022/10/11 09:43:50;;;;;;;7.90;2.33;;;;;;;;;;5071734;28;20189;-74
2022/10/11 09:46:18;;;;;;;15.07;3.23;;;;;;;;;;5072110;28;20544;-74
2022/10/11 09:48:44;;;;;;;11.60;2.87;;;;;;;;;;5089371;28;20529;-74
2022/10/11 09:51:16;;;;;;;8.60;2.30;;;;;;;;;;5090108;28;20268;-73
2022/10/11 09:53:59;;;;;;;10.10;2.47;;;;;;;;;;5071821;28;20200;-74
2022/10/11 09:56:27;;;;;;;7.17;2.03;;;;;;;;;;5071397;28;20262;-74
2022/10/11 09:59:07;;;;;;;9.93;1.97;;;;;;;;;;5088557;28;20284;-75
2022/10/11 10:02:04;;;;;;;10.07;1.90;;;;;;;;;;5089576;28;20177;-74
2022/10/11 10:04:31;;;;;;;8.63;2.23;;;;;;;;;;5089482;28;20189;-74
2022/10/11 10:07:08;;;;;;;7.23;2.00;;;;;;;;;;5071566;28;20201;-74
2022/10/11 10:09:35;;;;;;;8.03;2.20;;;;;;;;;;5089522;28;20201;-74
2022/10/11 10:12:20;;;;;;;8.37;2.10;;;;;;;;;;5074488;28;20174;-73
2022/10/11 10:15:04;;;;;;;8.03;2.00;;;;;;;;;;5071561;28;20200;-74
2022/10/11 10:17:31;;;;;;;7.33;2.00;;;;;;;;;;5071650;28;20213;-74
2022/10/11 10:19:59;;;;;;;7.57;1.70;;;;;;;;;;5071193;28;20190;-74
2022/10/11 10:22:29;;;;;;;11.10;1.97;;;;;;;;;;5071599;28;20534;-74
2022/10/11 10:24:57;;;;;;;9.17;2.00;;;;;;;;;;5071629;28;20211;-75
2022/10/11 10:27:24;;;;;;;8.63;1.93;;;;;;;;;;5071443;28;20208;-75
2022/10/11 10:30:03;;;;;;;7.87;2.27;;;;;;;;;;5072055;28;20589;-74
2022/10/11 10:32:38;;;;;;;8.37;2.00;;;;;;;;;;5089130;28;20193;-74
2022/10/11 10:35:16;;;;;;;6.33;1.90;;;;;;;;;;5088844;28;20645;-74
2022/10/11 10:38:00;;;;;;;6.13;1.80;;;;;;;;;;5104104;28;20220;-74
2022/10/11 10:40:29;;;;;;;7.37;1.70;;;;;;;;;;5109213;28;20181;-74
2022/10/11 10:42:57;;;;;;;7.47;1.80;;;;;;;;;;5088832;28;20197;-73
2022/10/11 10:45:25;;;;;;;11.27;2.70;;;;;;;;;;5109382;28;20188;-74
2022/10/11 10:47:56;;;;;;;7.73;2.20;;;;;;;;;;5092070;28;20521;-74
2022/10/11 10:50:28;;;;;;;10.47;2.00;;;;;;;;;;5090951;28;20189;-75
2022/10/11 10:53:01;;;;;;;8.43;1.73;;;;;;;;;;5111707;28;20246;-74
2022/10/11 10:55:56;;;;;;;8.33;2.17;;;;;;;;;;5112671;28;20188;-74
2022/10/11 10:58:26;;;;;;;9.80;2.00;;;;;;;;;;5095049;28;20188;-74
2022/10/11 11:00:55;;;;;;;9.30;2.07;;;;;;;;;;5112786;28;20193;-74
2022/10/11 11:03:31;;;;;;;7.13;1.60;;;;;;;;;;5094908;28;20202;-74
2022/10/11 11:06:02;;;;;;;10.50;2.60;;;;;;;;;;5113397;28;20314;-73
2022/10/11 11:08:39;;;;;;;8.60;1.90;;;;;;;;;;5094733;28;20199;-74
2022/10/11 11:11:32;;;;;;;8.63;2.30;;;;;;;;;;5112605;28;20205;-74
2022/10/11 11:13:59;;;;;;;7.10;2.00;;;;;;;;;;5088625;28;20295;-74
2022/10/11 11:16:33;;;;;;;6.67;1.77;;;;;;;;;;5112142;28;20208;-73
2022/10/11 11:19:00;;;;;;;8.37;2.27;;;;;;;;;;5112618;28;20211;-73
2022/10/11 11:21:30;;;;;;;3.53;1.23;;;;;;;;;;5094382;28;20655;-73
2022/10/11 11:24:03;;;;;;;7.63;1.60;;;;;;;;;;5094617;28;20200;-73
2022/10/11 11:26:39;;;;;;;9.90;2.27;;;;;;;;;;5112368;28;20184;-73
2022/10/11 11:29:25;;;;;;;6.60;1.93;;;;;;;;;;5095035;28;20193;-73
2022/10/11 11:32:01;;;;;;;6.00;1.63;;;;;;;;;;5112624;28;20649;-74
2022/10/11 11:34:31;;;;;;;11.20;1.80;;;;;;;;;;5112051;28;20239;-73
2022/10/11 11:37:24;;;;;;;13.53;1.93;;;;;;;;;;5070588;28;20214;-73
2022/10/11 11:39:52;;;;;;;13.40;2.30;;;;;;;;;;5070335;28;20181;-73
2022/10/11 11:42:43;;;;;;;10.53;1.70;;;;;;;;;;5070399;28;20283;-73
2022/10/11 11:45:13;;;;;;;7.03;1.60;;;;;;;;;;5070705;28;20198;-73
2022/10/11 11:47:40;;;;;;;6.70;1.60;;;;;;;;;;5071869;28;20182;-73
2022/10/11 11:50:17;;;;;;;8.30;1.80;;;;;;;;;;5070083;28;20197;-73
2022/10/11 11:52:45;;;;;;;5.70;1.33;;;;;;;;;;5071395;28;20193;-74
2022/10/11 11:55:14;;;;;;;5.87;1.60;;;;;;;;;;5037205;28;20198;-73
2022/10/11 11:58:04;;;;;;;7.33;2.03;;;;;;;;;;5070204;28;20210;-73
2022/10/11 12:01:08;;;;;;;7.17;1.60;;;;;;;;;;5070232;28;20560;-73
2022/10/11 12:03:42;;;;;;;7.90;1.90;;;;;;;;;;5028662;28;20558;-72
2022/10/11 12:06:12;;;;;;;10.80;1.83;;;;;;;;;;5064992;28;20289;-74
2022/10/11 12:08:43;;;;;;;7.50;1.27;;;;;;;;;;5071317;28;20545;-73
2022/10/11 12:11:23;;;;;;;7.43;2.23;;;;;;;;;;5053093;28;20197;-73
2022/10/11 12:13:53;;;;;;;6.93;1.87;;;;;;;;;;5069308;28;20240;-75
2022/10/11 12:16:20;;;;;;;8.70;1.63;;;;;;;;;;5085874;28;20200;-76
2022/10/11 12:18:47;;;;;;;7.83;1.30;;;;;;;;;;5089696;28;20612;-72
2022/10/11 12:21:21;;;;;;;6.43;1.33;;;;;;;;;;5079414;28;20190;-73
2022/10/11 12:27:50;;;;;;;8.70;2.10;;;;;;;;;;5086893;28;20200;-73
2022/10/11 12:30:36;;;;;;;9.10;1.80;;;;;;;;;;5090079;28;20363;-73
2022/10/11 12:33:12;;;;;;;8.27;1.53;;;;;;;;;;5074292;28;20193;-73
2022/10/11 12:35:41;;;;;;;9.07;1.67;;;;;;;;;;5088324;28;20660;-73
2022/10/11 12:38:15;;;;;;;8.07;1.93;;;;;;;;;;5088323;28;20221;-75
2022/10/11 12:40:42;;;;;;;10.17;2.20;;;;;;;;;;5089896;28;20193;-73
2022/10/11 12:43:15;;;;;;;9.97;1.63;;;;;;;;;;5053394;28;20197;-73
2022/10/11 12:45:46;;;;;;;5.90;1.80;;;;;;;;;;5089601;28;20197;-72
2022/10/11 12:48:13;;;;;;;5.47;1.80;;;;;;;;;;5084823;28;20246;-72
2022/10/11 12:50:43;;;;;;;8.73;2.30;;;;;;;;;;5089340;28;20209;-72
2022/10/11 12:53:19;;;;;;;8.63;2.10;;;;;;;;;;5088209;28;20201;-72
2022/10/11 12:55:49;;;;;;;6.90;1.80;;;;;;;;;;5089651;28;20242;-72
2022/10/11 12:58:22;;;;;;;3.97;1.17;;;;;;;;;;5090367;28;20278;-72
2022/10/11 13:00:49;;;;;;;8.07;1.43;;;;;;;;;;5075842;28;20250;-73
2022/10/11 13:03:34;;;;;;;6.00;1.80;;;;;;;;;;5089911;28;20280;-72
2022/10/11 13:06:08;;;;;;;5.10;1.50;;;;;;;;;;5089758;28;20217;-73
2022/10/11 13:08:36;;;;;;;9.27;2.27;;;;;;;;;;5084693;28;20229;-72
2022/10/11 13:11:04;;;;;;;5.47;2.00;;;;;;;;;;5075938;28;20569;-73
2022/10/11 13:13:32;;;;;;;7.73;1.97;;;;;;;;;;5089200;28;20189;-75
2022/10/11 13:16:00;;;;;;;8.90;2.03;;;;;;;;;;5062399;28;20201;-79
2022/10/11 13:18:26;;;;;;;9.57;1.83;;;;;;;;;;5097695;27;20216;-73
2022/10/11 13:20:54;;;;;;;9.57;1.50;;;;;;;;;;5095273;27;20208;-74
2022/10/11 13:23:25;;;;;;;6.53;1.80;;;;;;;;;;5080347;28;20207;-70
2022/10/11 13:25:52;;;;;;;7.37;1.40;;;;;;;;;;5093554;28;20194;-72
2022/10/11 13:28:20;;;;;;;8.10;1.73;;;;;;;;;;5075016;28;20233;-72
2022/10/11 13:30:49;;;;;;;11.17;2.07;;;;;;;;;;5078705;28;20192;-73
2022/10/11 13:33:20;;;;;;;6.50;1.47;;;;;;;;;;5097264;28;21805;-72
2022/10/11 13:35:48;;;;;;;16.50;2.60;;;;;;;;;;5087841;28;20221;-76
2022/10/11 13:38:22;;;;;;;8.47;1.80;;;;;;;;;;5071603;28;20232;-74
2022/10/11 13:40:49;;;;;;;10.13;1.50;;;;;;;;;;5065538;28;20228;-76
2022/10/11 13:43:19;;;;;;;6.53;1.60;;;;;;;;;;5079511;28;20292;-74
2022/10/11 13:45:47;;;;;;;9.63;1.87;;;;;;;;;;5071070;28;20213;-75
2022/10/11 13:48:13;;;;;;;5.77;1.70;;;;;;;;;;5059844;28;20288;-72
2022/10/11 13:50:45;;;;;;;12.10;1.97;;;;;;;;;;5078465;28;20283;-76
2022/10/11 13:53:11;;;;;;;6.17;1.70;;;;;;;;;;5094315;28;20291;-72
2022/10/11 13:55:41;;;;;;;7.00;1.73;;;;;;;;;;5089936;28;20196;-74
2022/10/11 13:58:09;;;;;;;8.00;1.53;;;;;;;;;;5071530;28;20229;-75
2022/10/11 14:00:43;;;;;;;10.97;2.00;;;;;;;;;;5082060;28;20547;-78
2022/10/11 14:03:12;;;;;;;7.67;1.90;;;;;;;;;;5071653;28;20240;-79
2022/10/11 14:05:41;;;;;;;6.20;1.87;;;;;;;;;;5082365;28;20554;-73
2022/10/11 14:08:21;;;;;;;7.67;1.50;;;;;;;;;;5076786;28;20285;-76
2022/10/11 14:10:47;;;;;;;8.30;2.27;;;;;;;;;;5078722;28;20216;-78
2022/10/11 14:13:22;;;;;;;10.87;2.47;;;;;;;;;;5081041;28;20199;-77
2022/10/11 14:16:05;;;;;;;5.43;1.53;;;;;;;;;;5095367;28;20200;-78
2022/10/11 14:18:35;;;;;;;6.13;2.00;;;;;;;;;;5075796;28;20295;-72
2022/10/11 14:21:20;;;;;;;11.00;2.30;;;;;;;;;;5079133;28;20206;-71
2022/10/11 14:23:50;;;;;;;9.83;1.80;;;;;;;;;;5091635;28;21008;-70
2022/10/11 14:26:17;;;;;;;8.97;1.60;;;;;;;;;;5076629;28;20224;-71
2022/10/11 14:28:44;;;;;;;6.40;1.90;;;;;;;;;;5076603;28;20269;-70
2022/10/11 14:31:11;;;;;;;9.93;1.90;;;;;;;;;;5090730;28;20189;-70
2022/10/11 14:33:38;;;;;;;7.63;1.73;;;;;;;;;;5077150;28;20237;-70
2022/10/11 14:36:04;;;;;;;10.03;2.10;;;;;;;;;;5077286;28;20197;-70
2022/10/11 14:38:31;;;;;;;7.33;1.60;;;;;;;;;;5108863;28;20225;-70
2022/10/11 14:40:58;;;;;;;6.37;2.20;;;;;;;;;;5088839;28;20193;-73
2022/10/11 14:43:25;;;;;;;6.27;1.53;;;;;;;;;;5100491;28;20249;-72
2022/10/11 14:45:54;;;;;;;9.60;2.17;;;;;;;;;;5087728;28;20201;-76
2022/10/11 14:48:20;;;;;;;7.77;1.90;;;;;;;;;;5085942;28;20190;-75
2022/10/11 14:51:09;;;;;;;6.20;1.60;;;;;;;;;;5085348;28;20618;-79
2022/10/11 14:53:40;;;;;;;6.00;1.47;;;;;;;;;;5082093;28;20219;-73
2022/10/11 14:56:07;;;;;;;7.00;1.77;;;;;;;;;;5087454;28;20656;-74
2022/10/11 14:58:38;;;;;;;10.97;2.23;;;;;;;;;;5083175;28;20236;-74
2022/10/11 15:01:09;;;;;;;11.43;1.93;;;;;;;;;;5086328;28;20192;-79
2022/10/11 15:03:36;;;;;;;8.20;2.00;;;;;;;;;;5047070;28;20201;-68
2022/10/11 15:06:05;;;;;;;11.13;1.80;;;;;;;;;;5085583;28;20189;-72